Rome State, OR

10:57 PM MDT on August 19, 2014 (GMT -0600)
Nampa | Change Station
CLOSE
Current Station
Airport
Location: Nampa,
Elevation: 2536 ft
Nearby Weather Stations

Elev 2536 ft 43.58 °N, 116.52 °W | Updated 22 minutes ago

Clear
Clear
75 °F
Feels Like 75 °F
N
0
Wind Variable Wind from North

Today
High -- | Low -- °F
--% Chance of Precip.
Yesterday
High -- | Low -- °F
Precip. -- in
7:02 AM 8:46 PM
Waning Crescent, 24% visible
Pressure 29.74 in
Visibility 10.0 miles
Clouds Clear
Dew Point 48 °F
Humidity 38%
Rainfall 0.00 in
Snow Depth Not available.
UV 0 out of 12
Pollen 6.10 out of 12
Air Quality Not available.
Flu Activity Not available.
METAR KMAN 200435Z AUTO 00000KT 10SM CLR 24/09 A2974 RMK AO1

More Conditions Fewer Conditions

Pressure 29.74 in
Visibility 10.0 miles
Clouds Clear
Dew Point 48 °F
Humidity 38%
Rainfall 0.00 in
Snow Depth Not available.
UV 0 out of 12
Pollen 6.10 out of 12
Air Quality Not available.
Flu Activity Not available.
METAR KMAN 200435Z AUTO 00000KT 10SM CLR 24/09 A2974 RMK AO1

More Conditions Fewer Conditions

10-Day Weather Forecast

Almanac

Astronomy

Aug. 19, 2014 Rise Set
Actual Time 7:02 AM MDT 8:46 PM MDT
Civil Twilight 6:32 AM MDT 9:16 PM MDT
Nautical Twilight 5:56 AM MDT 9:53 PM MDT
Astronomical Twilight 5:16 AM MDT 10:32 PM MDT
Moon 1:56 AM MDT (8/19) 4:49 PM MDT (8/19)
Length of Visible Light 14h 44m
Length of Day
13h 44m
Tomorrow will be 2m 38s shorter.
Waning Crescent, 24% of the Moon is Illuminated
Aug 20
Waning Crescent
Aug 25
New
Sep 2
First Quarter
Sep 8
Full
Sep 15
Last Quarter

Yesterday's Extremes

State Highs State Lows

Community

WunderPhotos

Upload Photos

1,745,585 photos uploaded!

Nearby

Snow Depth

Station Depth Elevation
Fish Creek 0 in 7900 ft
Blue Mountain Spring 0 in 5900 ft
Bourne 0 in 5800 ft
Schneider Meadows 0 in 5400 ft
Aneroid Lake #2 0 in 7300 ft

Earthquake Activity

City Distance Mag. Time & Date
No recent earthquake activity has been reported nearby.
Minimum magnitude displayed is 2.5.

Coastal Water Temperatures

Place Temperature
No Stations Reporting

Nearby Weather Stations